sensor_id;sensor_type;location;lat;lon;timestamp;P1;durP1;ratioP1;P2;durP2;ratioP2
6898;SDS011;3488;42.616;23.350;2022-10-16T00:01:52;10.07;;;6.80;;
6898;SDS011;3488;42.616;23.350;2022-10-16T00:04:18;7.55;;;6.32;;
6898;SDS011;3488;42.616;23.350;2022-10-16T00:06:45;10.23;;;7.45;;
6898;SDS011;3488;42.616;23.350;2022-10-16T00:09:14;12.23;;;7.28;;
6898;SDS011;3488;42.616;23.350;2022-10-16T00:11:41;7.90;;;7.10;;
6898;SDS011;3488;42.616;23.350;2022-10-16T00:14:10;10.88;;;8.07;;
6898;SDS011;3488;42.616;23.350;2022-10-16T00:16:38;8.82;;;6.05;;
6898;SDS011;3488;42.616;23.350;2022-10-16T00:19:05;10.02;;;6.63;;
6898;SDS011;3488;42.616;23.350;2022-10-16T00:21:33;13.63;;;7.65;;
6898;SDS011;3488;42.616;23.350;2022-10-16T00:24:01;8.50;;;6.82;;
6898;SDS011;3488;42.616;23.350;2022-10-16T00:26:32;8.07;;;6.35;;
6898;SDS011;3488;42.616;23.350;2022-10-16T00:29:00;11.90;;;6.70;;
6898;SDS011;3488;42.616;23.350;2022-10-16T00:31:27;6.60;;;5.60;;
6898;SDS011;3488;42.616;23.350;2022-10-16T00:33:54;11.27;;;6.28;;
6898;SDS011;3488;42.616;23.350;2022-10-16T00:36:22;6.45;;;5.78;;
6898;SDS011;3488;42.616;23.350;2022-10-16T00:38:50;6.20;;;5.65;;
6898;SDS011;3488;42.616;23.350;2022-10-16T00:41:20;6.18;;;5.68;;
6898;SDS011;3488;42.616;23.350;2022-10-16T00:43:49;6.90;;;5.57;;
6898;SDS011;3488;42.616;23.350;2022-10-16T00:46:19;6.82;;;5.65;;
6898;SDS011;3488;42.616;23.350;2022-10-16T00:48:50;10.10;;;6.38;;
6898;SDS011;3488;42.616;23.350;2022-10-16T00:51:19;5.72;;;5.07;;
6898;SDS011;3488;42.616;23.350;2022-10-16T00:53:49;7.07;;;6.25;;
6898;SDS011;3488;42.616;23.350;2022-10-16T00:56:16;7.78;;;5.53;;
6898;SDS011;3488;42.616;23.350;2022-10-16T00:58:44;8.25;;;5.38;;
6898;SDS011;3488;42.616;23.350;2022-10-16T01:01:12;5.55;;;5.03;;
6898;SDS011;3488;42.616;23.350;2022-10-16T01:03:39;5.25;;;4.78;;
6898;SDS011;3488;42.616;23.350;2022-10-16T01:06:14;5.65;;;5.10;;
6898;SDS011;3488;42.616;23.350;2022-10-16T01:08:51;6.43;;;4.85;;
6898;SDS011;3488;42.616;23.350;2022-10-16T01:11:27;8.48;;;5.57;;
6898;SDS011;3488;42.616;23.350;2022-10-16T01:14:00;10.25;;;5.20;;
6898;SDS011;3488;42.616;23.350;2022-10-16T01:16:39;10.45;;;6.35;;
6898;SDS011;3488;42.616;23.350;2022-10-16T01:19:12;8.82;;;5.85;;
6898;SDS011;3488;42.616;23.350;2022-10-16T01:21:43;6.10;;;5.50;;
6898;SDS011;3488;42.616;23.350;2022-10-16T01:24:16;5.45;;;4.93;;
6898;SDS011;3488;42.616;23.350;2022-10-16T01:26:58;4.57;;;4.18;;
6898;SDS011;3488;42.616;23.350;2022-10-16T01:29:39;4.18;;;3.88;;
6898;SDS011;3488;42.616;23.350;2022-10-16T01:32:13;4.65;;;4.25;;
6898;SDS011;3488;42.616;23.350;2022-10-16T01:34:46;5.47;;;3.78;;
6898;SDS011;3488;42.616;23.350;2022-10-16T01:37:19;11.20;;;4.57;;
6898;SDS011;3488;42.616;23.350;2022-10-16T01:39:52;5.55;;;4.45;;
6898;SDS011;3488;42.616;23.350;2022-10-16T01:42:26;5.32;;;3.92;;
6898;SDS011;3488;42.616;23.350;2022-10-16T01:44:56;4.95;;;4.55;;
6898;SDS011;3488;42.616;23.350;2022-10-16T01:47:29;4.40;;;4.10;;
6898;SDS011;3488;42.616;23.350;2022-10-16T01:49:58;4.45;;;4.15;;
6898;SDS011;3488;42.616;23.350;2022-10-16T01:52:29;4.75;;;4.35;;
6898;SDS011;3488;42.616;23.350;2022-10-16T01:54:58;4.75;;;4.45;;
6898;SDS011;3488;42.616;23.350;2022-10-16T01:57:29;6.80;;;4.00;;
6898;SDS011;3488;42.616;23.350;2022-10-16T01:59:58;5.55;;;4.65;;
6898;SDS011;3488;42.616;23.350;2022-10-16T02:02:29;5.68;;;4.13;;
6898;SDS011;3488;42.616;23.350;2022-10-16T02:04:58;5.00;;;4.35;;
6898;SDS011;3488;42.616;23.350;2022-10-16T02:07:29;4.03;;;3.72;;
6898;SDS011;3488;42.616;23.350;2022-10-16T02:09:56;6.70;;;5.20;;
6898;SDS011;3488;42.616;23.350;2022-10-16T02:12:24;4.30;;;3.95;;
6898;SDS011;3488;42.616;23.350;2022-10-16T02:14:56;4.25;;;3.95;;
6898;SDS011;3488;42.616;23.350;2022-10-16T02:17:23;4.80;;;4.40;;
6898;SDS011;3488;42.616;23.350;2022-10-16T02:19:51;5.32;;;4.93;;
6898;SDS011;3488;42.616;23.350;2022-10-16T02:22:21;4.93;;;4.53;;
6898;SDS011;3488;42.616;23.350;2022-10-16T02:24:54;10.70;;;4.40;;
6898;SDS011;3488;42.616;23.350;2022-10-16T02:27:25;5.53;;;5.03;;
6898;SDS011;3488;42.616;23.350;2022-10-16T02:29:59;9.55;;;5.28;;
6898;SDS011;3488;42.616;23.350;2022-10-16T02:32:33;7.93;;;5.85;;
6898;SDS011;3488;42.616;23.350;2022-10-16T02:35:02;5.35;;;4.95;;
6898;SDS011;3488;42.616;23.350;2022-10-16T02:37:30;8.93;;;5.35;;
6898;SDS011;3488;42.616;23.350;2022-10-16T02:39:58;7.63;;;5.75;;
6898;SDS011;3488;42.616;23.350;2022-10-16T02:42:28;5.50;;;5.10;;
6898;SDS011;3488;42.616;23.350;2022-10-16T02:45:00;6.82;;;5.55;;
6898;SDS011;3488;42.616;23.350;2022-10-16T02:47:27;6.82;;;5.40;;
6898;SDS011;3488;42.616;23.350;2022-10-16T02:49:55;5.85;;;5.20;;
6898;SDS011;3488;42.616;23.350;2022-10-16T02:52:22;6.53;;;5.88;;
6898;SDS011;3488;42.616;23.350;2022-10-16T02:54:49;5.72;;;5.07;;
6898;SDS011;3488;42.616;23.350;2022-10-16T02:57:16;6.07;;;5.50;;
6898;SDS011;3488;42.616;23.350;2022-10-16T02:59:44;6.45;;;5.57;;
6898;SDS011;3488;42.616;23.350;2022-10-16T03:02:12;5.80;;;5.30;;
6898;SDS011;3488;42.616;23.350;2022-10-16T03:04:39;6.15;;;5.32;;
6898;SDS011;3488;42.616;23.350;2022-10-16T03:07:06;11.82;;;8.07;;
6898;SDS011;3488;42.616;23.350;2022-10-16T03:09:33;9.05;;;6.90;;
6898;SDS011;3488;42.616;23.350;2022-10-16T03:11:59;9.13;;;6.75;;
6898;SDS011;3488;42.616;23.350;2022-10-16T03:14:26;14.57;;;9.27;;
6898;SDS011;3488;42.616;23.350;2022-10-16T03:16:53;8.30;;;6.88;;
6898;SDS011;3488;42.616;23.350;2022-10-16T03:19:21;12.57;;;8.27;;
6898;SDS011;3488;42.616;23.350;2022-10-16T03:21:48;15.80;;;11.75;;
6898;SDS011;3488;42.616;23.350;2022-10-16T03:24:15;15.90;;;10.82;;
6898;SDS011;3488;42.616;23.350;2022-10-16T03:26:42;14.63;;;11.00;;
6898;SDS011;3488;42.616;23.350;2022-10-16T03:29:09;20.02;;;11.52;;
6898;SDS011;3488;42.616;23.350;2022-10-16T03:31:35;17.20;;;11.57;;
6898;SDS011;3488;42.616;23.350;2022-10-16T03:34:02;18.92;;;12.40;;
6898;SDS011;3488;42.616;23.350;2022-10-16T03:36:31;21.85;;;12.18;;
6898;SDS011;3488;42.616;23.350;2022-10-16T03:38:57;18.23;;;11.20;;
6898;SDS011;3488;42.616;23.350;2022-10-16T03:41:24;15.85;;;10.15;;
6898;SDS011;3488;42.616;23.350;2022-10-16T03:43:51;16.88;;;11.55;;
6898;SDS011;3488;42.616;23.350;2022-10-16T03:46:18;15.90;;;10.30;;
6898;SDS011;3488;42.616;23.350;2022-10-16T03:48:45;14.55;;;9.75;;
6898;SDS011;3488;42.616;23.350;2022-10-16T03:51:12;17.08;;;10.43;;
6898;SDS011;3488;42.616;23.350;2022-10-16T03:53:40;19.38;;;12.18;;
6898;SDS011;3488;42.616;23.350;2022-10-16T03:56:07;14.80;;;11.35;;
6898;SDS011;3488;42.616;23.350;2022-10-16T03:58:34;15.70;;;11.07;;
6898;SDS011;3488;42.616;23.350;2022-10-16T04:01:00;16.83;;;10.82;;
6898;SDS011;3488;42.616;23.350;2022-10-16T04:03:27;16.10;;;12.13;;
6898;SDS011;3488;42.616;23.350;2022-10-16T04:05:54;23.13;;;11.75;;
6898;SDS011;3488;42.616;23.350;2022-10-16T04:08:21;17.88;;;11.90;;
6898;SDS011;3488;42.616;23.350;2022-10-16T04:10:50;13.65;;;10.05;;
6898;SDS011;3488;42.616;23.350;2022-10-16T04:13:17;13.65;;;9.30;;
6898;SDS011;3488;42.616;23.350;2022-10-16T04:15:44;14.40;;;9.55;;
6898;SDS011;3488;42.616;23.350;2022-10-16T04:18:11;13.23;;;9.65;;
6898;SDS011;3488;42.616;23.350;2022-10-16T04:20:38;14.90;;;9.82;;
6898;SDS011;3488;42.616;23.350;2022-10-16T04:23:05;13.55;;;9.38;;
6898;SDS011;3488;42.616;23.350;2022-10-16T04:25:32;11.43;;;8.85;;
6898;SDS011;3488;42.616;23.350;2022-10-16T04:28:00;9.95;;;8.65;;
6898;SDS011;3488;42.616;23.350;2022-10-16T04:30:27;15.18;;;8.45;;
6898;SDS011;3488;42.616;23.350;2022-10-16T04:32:53;11.35;;;8.85;;
6898;SDS011;3488;42.616;23.350;2022-10-16T04:35:20;11.43;;;9.23;;
6898;SDS011;3488;42.616;23.350;2022-10-16T04:37:48;15.70;;;9.27;;
6898;SDS011;3488;42.616;23.350;2022-10-16T04:40:15;13.10;;;8.57;;
6898;SDS011;3488;42.616;23.350;2022-10-16T04:42:43;16.75;;;9.10;;
6898;SDS011;3488;42.616;23.350;2022-10-16T04:45:11;10.95;;;8.63;;
6898;SDS011;3488;42.616;23.350;2022-10-16T04:47:38;11.85;;;9.57;;
6898;SDS011;3488;42.616;23.350;2022-10-16T04:50:05;12.10;;;9.45;;
6898;SDS011;3488;42.616;23.350;2022-10-16T04:52:32;15.65;;;10.52;;
6898;SDS011;3488;42.616;23.350;2022-10-16T04:54:59;16.05;;;11.25;;
6898;SDS011;3488;42.616;23.350;2022-10-16T04:57:28;15.52;;;9.95;;
6898;SDS011;3488;42.616;23.350;2022-10-16T04:59:54;12.93;;;10.35;;
6898;SDS011;3488;42.616;23.350;2022-10-16T05:02:23;14.80;;;10.40;;
6898;SDS011;3488;42.616;23.350;2022-10-16T05:04:50;16.10;;;10.35;;
6898;SDS011;3488;42.616;23.350;2022-10-16T05:07:17;15.65;;;10.45;;
6898;SDS011;3488;42.616;23.350;2022-10-16T05:09:44;15.60;;;9.85;;
6898;SDS011;3488;42.616;23.350;2022-10-16T05:12:11;13.88;;;10.32;;
6898;SDS011;3488;42.616;23.350;2022-10-16T05:14:37;13.98;;;9.93;;
6898;SDS011;3488;42.616;23.350;2022-10-16T05:17:04;18.73;;;11.68;;
6898;SDS011;3488;42.616;23.350;2022-10-16T05:19:32;13.82;;;10.82;;
6898;SDS011;3488;42.616;23.350;2022-10-16T05:21:59;15.32;;;11.15;;
6898;SDS011;3488;42.616;23.350;2022-10-16T05:24:26;16.80;;;11.30;;
6898;SDS011;3488;42.616;23.350;2022-10-16T05:26:53;21.58;;;10.55;;
6898;SDS011;3488;42.616;23.350;2022-10-16T05:29:20;13.05;;;9.52;;
6898;SDS011;3488;42.616;23.350;2022-10-16T05:31:49;14.15;;;9.48;;
6898;SDS011;3488;42.616;23.350;2022-10-16T05:34:17;11.30;;;9.88;;
6898;SDS011;3488;42.616;23.350;2022-10-16T05:36:45;10.65;;;9.55;;
6898;SDS011;3488;42.616;23.350;2022-10-16T05:39:13;15.85;;;11.88;;
6898;SDS011;3488;42.616;23.350;2022-10-16T05:41:40;17.15;;;11.93;;
6898;SDS011;3488;42.616;23.350;2022-10-16T05:44:07;18.33;;;12.70;;
6898;SDS011;3488;42.616;23.350;2022-10-16T05:46:34;15.55;;;11.60;;
6898;SDS011;3488;42.616;23.350;2022-10-16T05:49:01;17.15;;;12.27;;
6898;SDS011;3488;42.616;23.350;2022-10-16T05:51:28;15.05;;;11.57;;
6898;SDS011;3488;42.616;23.350;2022-10-16T05:53:56;16.48;;;11.32;;
6898;SDS011;3488;42.616;23.350;2022-10-16T05:56:22;17.15;;;11.63;;
6898;SDS011;3488;42.616;23.350;2022-10-16T05:58:49;15.38;;;11.32;;
6898;SDS011;3488;42.616;23.350;2022-10-16T06:01:17;16.67;;;12.40;;
6898;SDS011;3488;42.616;23.350;2022-10-16T06:03:45;14.88;;;11.60;;
6898;SDS011;3488;42.616;23.350;2022-10-16T06:06:12;19.30;;;11.77;;
6898;SDS011;3488;42.616;23.350;2022-10-16T06:08:41;17.50;;;11.18;;
6898;SDS011;3488;42.616;23.350;2022-10-16T06:11:12;15.32;;;10.48;;
6898;SDS011;3488;42.616;23.350;2022-10-16T06:13:42;16.00;;;11.80;;
6898;SDS011;3488;42.616;23.350;2022-10-16T06:16:11;17.75;;;11.55;;
6898;SDS011;3488;42.616;23.350;2022-10-16T06:18:38;13.60;;;10.38;;
6898;SDS011;3488;42.616;23.350;2022-10-16T06:21:06;14.65;;;10.55;;
6898;SDS011;3488;42.616;23.350;2022-10-16T06:23:35;13.95;;;10.32;;
6898;SDS011;3488;42.616;23.350;2022-10-16T06:26:05;13.13;;;10.23;;
6898;SDS011;3488;42.616;23.350;2022-10-16T06:28:34;12.00;;;9.68;;
6898;SDS011;3488;42.616;23.350;2022-10-16T06:31:02;13.32;;;10.15;;
6898;SDS011;3488;42.616;23.350;2022-10-16T06:33:30;13.90;;;10.35;;
6898;SDS011;3488;42.616;23.350;2022-10-16T06:36:00;11.85;;;9.75;;
6898;SDS011;3488;42.616;23.350;2022-10-16T06:38:28;12.63;;;9.23;;
6898;SDS011;3488;42.616;23.350;2022-10-16T06:40:55;15.45;;;8.88;;
6898;SDS011;3488;42.616;23.350;2022-10-16T06:43:22;14.10;;;9.25;;
6898;SDS011;3488;42.616;23.350;2022-10-16T06:45:54;13.95;;;9.85;;
6898;SDS011;3488;42.616;23.350;2022-10-16T06:48:22;13.15;;;10.45;;
6898;SDS011;3488;42.616;23.350;2022-10-16T06:50:55;20.60;;;9.60;;
6898;SDS011;3488;42.616;23.350;2022-10-16T06:53:23;9.23;;;8.23;;
6898;SDS011;3488;42.616;23.350;2022-10-16T06:55:50;11.70;;;8.88;;
6898;SDS011;3488;42.616;23.350;2022-10-16T06:58:17;8.73;;;7.68;;
6898;SDS011;3488;42.616;23.350;2022-10-16T07:00:44;11.48;;;7.65;;
6898;SDS011;3488;42.616;23.350;2022-10-16T07:03:12;8.75;;;7.10;;
6898;SDS011;3488;42.616;23.350;2022-10-16T07:05:39;7.13;;;6.20;;
6898;SDS011;3488;42.616;23.350;2022-10-16T07:08:07;6.32;;;5.82;;
6898;SDS011;3488;42.616;23.350;2022-10-16T07:10:35;9.38;;;6.32;;
6898;SDS011;3488;42.616;23.350;2022-10-16T07:13:02;6.53;;;5.93;;
6898;SDS011;3488;42.616;23.350;2022-10-16T07:15:29;7.40;;;6.43;;
6898;SDS011;3488;42.616;23.350;2022-10-16T07:17:56;6.43;;;5.80;;
6898;SDS011;3488;42.616;23.350;2022-10-16T07:20:24;8.10;;;7.20;;
6898;SDS011;3488;42.616;23.350;2022-10-16T07:22:50;6.63;;;5.90;;
6898;SDS011;3488;42.616;23.350;2022-10-16T07:25:18;6.28;;;5.75;;
6898;SDS011;3488;42.616;23.350;2022-10-16T07:27:45;5.97;;;5.45;;
6898;SDS011;3488;42.616;23.350;2022-10-16T07:30:12;5.95;;;5.38;;
6898;SDS011;3488;42.616;23.350;2022-10-16T07:32:39;6.00;;;5.50;;
6898;SDS011;3488;42.616;23.350;2022-10-16T07:35:06;6.97;;;5.65;;
6898;SDS011;3488;42.616;23.350;2022-10-16T07:37:34;8.10;;;6.15;;
6898;SDS011;3488;42.616;23.350;2022-10-16T07:40:02;7.65;;;5.97;;
6898;SDS011;3488;42.616;23.350;2022-10-16T07:42:29;6.82;;;6.00;;
6898;SDS011;3488;42.616;23.350;2022-10-16T07:44:56;8.65;;;5.40;;
6898;SDS011;3488;42.616;23.350;2022-10-16T07:47:23;8.43;;;5.20;;
6898;SDS011;3488;42.616;23.350;2022-10-16T07:49:49;8.20;;;5.45;;
6898;SDS011;3488;42.616;23.350;2022-10-16T07:52:16;5.43;;;5.03;;
6898;SDS011;3488;42.616;23.350;2022-10-16T07:54:45;6.40;;;5.90;;
6898;SDS011;3488;42.616;23.350;2022-10-16T07:57:12;5.95;;;5.20;;
6898;SDS011;3488;42.616;23.350;2022-10-16T07:59:44;8.45;;;5.47;;
6898;SDS011;3488;42.616;23.350;2022-10-16T08:02:11;6.65;;;6.05;;
6898;SDS011;3488;42.616;23.350;2022-10-16T08:04:37;8.05;;;5.85;;
6898;SDS011;3488;42.616;23.350;2022-10-16T08:07:06;6.20;;;5.60;;
6898;SDS011;3488;42.616;23.350;2022-10-16T08:09:33;6.88;;;5.90;;
6898;SDS011;3488;42.616;23.350;2022-10-16T08:12:01;7.57;;;5.95;;
6898;SDS011;3488;42.616;23.350;2022-10-16T08:14:29;10.35;;;6.15;;
6898;SDS011;3488;42.616;23.350;2022-10-16T08:16:56;7.53;;;6.72;;
6898;SDS011;3488;42.616;23.350;2022-10-16T08:19:23;8.13;;;6.25;;
6898;SDS011;3488;42.616;23.350;2022-10-16T08:21:50;9.05;;;6.80;;
6898;SDS011;3488;42.616;23.350;2022-10-16T08:24:16;9.98;;;6.72;;
6898;SDS011;3488;42.616;23.350;2022-10-16T08:26:43;12.02;;;6.95;;
6898;SDS011;3488;42.616;23.350;2022-10-16T08:29:12;9.38;;;6.45;;
6898;SDS011;3488;42.616;23.350;2022-10-16T08:31:40;8.73;;;7.32;;
6898;SDS011;3488;42.616;23.350;2022-10-16T08:34:07;9.77;;;6.72;;
6898;SDS011;3488;42.616;23.350;2022-10-16T08:36:34;12.13;;;5.95;;
6898;SDS011;3488;42.616;23.350;2022-10-16T08:39:00;6.78;;;5.40;;
6898;SDS011;3488;42.616;23.350;2022-10-16T08:41:39;8.20;;;4.93;;
6898;SDS011;3488;42.616;23.350;2022-10-16T08:47:38;5.00;;;4.50;;
6898;SDS011;3488;42.616;23.350;2022-10-16T08:50:13;5.75;;;5.25;;
6898;SDS011;3488;42.616;23.350;2022-10-16T08:52:43;9.15;;;4.38;;
6898;SDS011;3488;42.616;23.350;2022-10-16T08:55:16;4.13;;;3.78;;
6898;SDS011;3488;42.616;23.350;2022-10-16T08:57:54;4.93;;;4.20;;
6898;SDS011;3488;42.616;23.350;2022-10-16T09:00:21;4.05;;;3.75;;
6898;SDS011;3488;42.616;23.350;2022-10-16T09:02:51;3.63;;;3.40;;
6898;SDS011;3488;42.616;23.350;2022-10-16T09:05:25;6.30;;;3.90;;
6898;SDS011;3488;42.616;23.350;2022-10-16T09:08:16;5.90;;;4.50;;
6898;SDS011;3488;42.616;23.350;2022-10-16T09:10:51;7.70;;;3.97;;
6898;SDS011;3488;42.616;23.350;2022-10-16T09:13:27;3.67;;;3.47;;
6898;SDS011;3488;42.616;23.350;2022-10-16T09:15:59;4.47;;;4.07;;
6898;SDS011;3488;42.616;23.350;2022-10-16T09:18:40;4.10;;;3.72;;
6898;SDS011;3488;42.616;23.350;2022-10-16T09:21:16;4.22;;;3.95;;
6898;SDS011;3488;42.616;23.350;2022-10-16T09:23:46;3.78;;;3.58;;
6898;SDS011;3488;42.616;23.350;2022-10-16T09:26:14;5.25;;;3.65;;
6898;SDS011;3488;42.616;23.350;2022-10-16T09:28:43;4.43;;;4.03;;
6898;SDS011;3488;42.616;23.350;2022-10-16T09:31:13;4.43;;;4.03;;
6898;SDS011;3488;42.616;23.350;2022-10-16T09:33:45;4.05;;;3.65;;
6898;SDS011;3488;42.616;23.350;2022-10-16T09:36:16;5.10;;;4.60;;
6898;SDS011;3488;42.616;23.350;2022-10-16T09:38:44;4.18;;;3.85;;
6898;SDS011;3488;42.616;23.350;2022-10-16T09:41:13;4.22;;;3.85;;
6898;SDS011;3488;42.616;23.350;2022-10-16T09:43:46;4.03;;;3.67;;
6898;SDS011;3488;42.616;23.350;2022-10-16T09:46:24;3.80;;;3.50;;
6898;SDS011;3488;42.616;23.350;2022-10-16T09:48:55;4.75;;;3.30;;
6898;SDS011;3488;42.616;23.350;2022-10-16T09:51:24;4.80;;;4.20;;
6898;SDS011;3488;42.616;23.350;2022-10-16T09:53:57;3.85;;;3.45;;
6898;SDS011;3488;42.616;23.350;2022-10-16T09:56:26;6.43;;;3.75;;
6898;SDS011;3488;42.616;23.350;2022-10-16T09:58:55;4.55;;;3.65;;
6898;SDS011;3488;42.616;23.350;2022-10-16T10:01:28;4.95;;;3.95;;
6898;SDS011;3488;42.616;23.350;2022-10-16T10:03:59;3.88;;;3.58;;
6898;SDS011;3488;42.616;23.350;2022-10-16T10:06:28;3.75;;;3.25;;
6898;SDS011;3488;42.616;23.350;2022-10-16T10:08:59;3.53;;;3.15;;
6898;SDS011;3488;42.616;23.350;2022-10-16T10:11:38;3.65;;;3.38;;
6898;SDS011;3488;42.616;23.350;2022-10-16T10:14:08;4.15;;;3.20;;
6898;SDS011;3488;42.616;23.350;2022-10-16T10:17:15;5.38;;;4.30;;
6898;SDS011;3488;42.616;23.350;2022-10-16T10:19:46;3.45;;;3.15;;
6898;SDS011;3488;42.616;23.350;2022-10-16T10:22:16;4.05;;;3.72;;
6898;SDS011;3488;42.616;23.350;2022-10-16T10:24:54;3.53;;;3.22;;
6898;SDS011;3488;42.616;23.350;2022-10-16T10:27:22;4.32;;;3.75;;
6898;SDS011;3488;42.616;23.350;2022-10-16T10:29:59;3.97;;;3.63;;
6898;SDS011;3488;42.616;23.350;2022-10-16T10:32:32;4.93;;;3.30;;
6898;SDS011;3488;42.616;23.350;2022-10-16T10:35:14;3.30;;;3.00;;
6898;SDS011;3488;42.616;23.350;2022-10-16T10:37:57;3.78;;;3.47;;
6898;SDS011;3488;42.616;23.350;2022-10-16T10:40:39;3.42;;;3.17;;
6898;SDS011;3488;42.616;23.350;2022-10-16T10:43:17;3.70;;;3.47;;
6898;SDS011;3488;42.616;23.350;2022-10-16T10:45:54;4.65;;;3.08;;
6898;SDS011;3488;42.616;23.350;2022-10-16T10:48:33;6.32;;;3.35;;
6898;SDS011;3488;42.616;23.350;2022-10-16T10:51:17;3.53;;;2.75;;
6898;SDS011;3488;42.616;23.350;2022-10-16T10:54:00;3.90;;;3.60;;
6898;SDS011;3488;42.616;23.350;2022-10-16T10:56:40;3.88;;;3.58;;
6898;SDS011;3488;42.616;23.350;2022-10-16T10:59:25;4.40;;;4.00;;
6898;SDS011;3488;42.616;23.350;2022-10-16T11:02:13;3.75;;;3.33;;
6898;SDS011;3488;42.616;23.350;2022-10-16T11:07:49;3.85;;;3.55;;
6898;SDS011;3488;42.616;23.350;2022-10-16T11:10:21;6.25;;;3.85;;
6898;SDS011;3488;42.616;23.350;2022-10-16T11:12:55;5.38;;;3.92;;
6898;SDS011;3488;42.616;23.350;2022-10-16T11:15:28;3.42;;;3.22;;
6898;SDS011;3488;42.616;23.350;2022-10-16T11:17:59;6.30;;;3.03;;
6898;SDS011;3488;42.616;23.350;2022-10-16T11:20:32;3.95;;;3.58;;
6898;SDS011;3488;42.616;23.350;2022-10-16T11:23:05;3.45;;;2.97;;
6898;SDS011;3488;42.616;23.350;2022-10-16T11:25:37;3.05;;;2.70;;
6898;SDS011;3488;42.616;23.350;2022-10-16T11:28:07;2.90;;;2.45;;
6898;SDS011;3488;42.616;23.350;2022-10-16T11:30:42;3.78;;;3.42;;
6898;SDS011;3488;42.616;23.350;2022-10-16T11:33:25;3.42;;;3.13;;
6898;SDS011;3488;42.616;23.350;2022-10-16T11:35:59;2.70;;;2.60;;
6898;SDS011;3488;42.616;23.350;2022-10-16T11:38:32;2.53;;;2.38;;
6898;SDS011;3488;42.616;23.350;2022-10-16T11:41:08;3.70;;;3.05;;
6898;SDS011;3488;42.616;23.350;2022-10-16T11:43:41;2.83;;;2.40;;
6898;SDS011;3488;42.616;23.350;2022-10-16T11:46:11;2.15;;;2.05;;
6898;SDS011;3488;42.616;23.350;2022-10-16T11:49:01;2.50;;;2.10;;
6898;SDS011;3488;42.616;23.350;2022-10-16T11:51:36;2.20;;;2.00;;
6898;SDS011;3488;42.616;23.350;2022-10-16T11:54:12;2.42;;;2.22;;
6898;SDS011;3488;42.616;23.350;2022-10-16T11:56:46;2.15;;;2.05;;
6898;SDS011;3488;42.616;23.350;2022-10-16T11:59:21;2.30;;;2.20;;
6898;SDS011;3488;42.616;23.350;2022-10-16T12:01:57;3.38;;;2.10;;
6898;SDS011;3488;42.616;23.350;2022-10-16T12:04:39;3.30;;;2.00;;
6898;SDS011;3488;42.616;23.350;2022-10-16T12:10:17;2.67;;;2.00;;
6898;SDS011;3488;42.616;23.350;2022-10-16T12:12:46;2.72;;;2.53;;
6898;SDS011;3488;42.616;23.350;2022-10-16T12:15:19;2.20;;;2.00;;
6898;SDS011;3488;42.616;23.350;2022-10-16T12:17:49;2.08;;;1.98;;
6898;SDS011;3488;42.616;23.350;2022-10-16T12:23:04;1.88;;;1.75;;
6898;SDS011;3488;42.616;23.350;2022-10-16T12:25:34;2.20;;;2.00;;
6898;SDS011;3488;42.616;23.350;2022-10-16T12:28:17;2.45;;;2.35;;
6898;SDS011;3488;42.616;23.350;2022-10-16T12:31:09;1.83;;;1.77;;
6898;SDS011;3488;42.616;23.350;2022-10-16T12:33:37;4.57;;;2.10;;
6898;SDS011;3488;42.616;23.350;2022-10-16T12:36:08;3.65;;;2.45;;
6898;SDS011;3488;42.616;23.350;2022-10-16T12:38:45;2.05;;;1.95;;
6898;SDS011;3488;42.616;23.350;2022-10-16T12:41:23;1.67;;;1.67;;
6898;SDS011;3488;42.616;23.350;2022-10-16T12:43:51;4.57;;;2.13;;
6898;SDS011;3488;42.616;23.350;2022-10-16T12:46:23;2.10;;;1.98;;
6898;SDS011;3488;42.616;23.350;2022-10-16T12:49:22;1.80;;;1.70;;
6898;SDS011;3488;42.616;23.350;2022-10-16T12:51:59;2.92;;;2.00;;
6898;SDS011;3488;42.616;23.350;2022-10-16T12:54:27;1.90;;;1.80;;
6898;SDS011;3488;42.616;23.350;2022-10-16T12:57:02;2.10;;;2.00;;
6898;SDS011;3488;42.616;23.350;2022-10-16T12:59:50;3.00;;;2.20;;
6898;SDS011;3488;42.616;23.350;2022-10-16T13:05:26;2.25;;;2.05;;
6898;SDS011;3488;42.616;23.350;2022-10-16T13:08:11;2.22;;;2.03;;
6898;SDS011;3488;42.616;23.350;2022-10-16T13:10:53;2.30;;;2.20;;
6898;SDS011;3488;42.616;23.350;2022-10-16T13:13:40;2.47;;;2.35;;
6898;SDS011;3488;42.616;23.350;2022-10-16T13:16:30;2.50;;;2.40;;
6898;SDS011;3488;42.616;23.350;2022-10-16T13:19:09;2.72;;;2.53;;
6898;SDS011;3488;42.616;23.350;2022-10-16T13:21:48;2.10;;;2.00;;
6898;SDS011;3488;42.616;23.350;2022-10-16T13:24:23;1.98;;;1.88;;
6898;SDS011;3488;42.616;23.350;2022-10-16T13:27:04;1.90;;;1.80;;
6898;SDS011;3488;42.616;23.350;2022-10-16T13:29:40;4.50;;;2.25;;
6898;SDS011;3488;42.616;23.350;2022-10-16T13:32:09;2.55;;;2.45;;
6898;SDS011;3488;42.616;23.350;2022-10-16T13:34:43;2.13;;;2.03;;
6898;SDS011;3488;42.616;23.350;2022-10-16T13:37:16;2.05;;;1.95;;
6898;SDS011;3488;42.616;23.350;2022-10-16T13:39:45;2.20;;;1.98;;
6898;SDS011;3488;42.616;23.350;2022-10-16T13:42:14;2.22;;;2.03;;
6898;SDS011;3488;42.616;23.350;2022-10-16T13:44:49;2.30;;;2.10;;
6898;SDS011;3488;42.616;23.350;2022-10-16T13:47:18;2.70;;;2.50;;
6898;SDS011;3488;42.616;23.350;2022-10-16T13:49:46;3.25;;;2.38;;
6898;SDS011;3488;42.616;23.350;2022-10-16T13:52:25;3.08;;;2.75;;
6898;SDS011;3488;42.616;23.350;2022-10-16T13:54:52;8.15;;;2.20;;
6898;SDS011;3488;42.616;23.350;2022-10-16T13:57:21;4.22;;;3.83;;
6898;SDS011;3488;42.616;23.350;2022-10-16T13:59:50;3.70;;;3.40;;
6898;SDS011;3488;42.616;23.350;2022-10-16T14:02:19;2.47;;;2.38;;
6898;SDS011;3488;42.616;23.350;2022-10-16T14:04:51;2.38;;;2.20;;
6898;SDS011;3488;42.616;23.350;2022-10-16T14:07:20;3.17;;;2.45;;
6898;SDS011;3488;42.616;23.350;2022-10-16T14:09:51;2.13;;;1.73;;
6898;SDS011;3488;42.616;23.350;2022-10-16T14:12:19;2.45;;;2.35;;
6898;SDS011;3488;42.616;23.350;2022-10-16T14:14:50;2.05;;;1.95;;
6898;SDS011;3488;42.616;23.350;2022-10-16T14:17:20;3.40;;;3.10;;
6898;SDS011;3488;42.616;23.350;2022-10-16T14:19:50;2.72;;;2.53;;
6898;SDS011;3488;42.616;23.350;2022-10-16T14:22:28;2.90;;;2.67;;
6898;SDS011;3488;42.616;23.350;2022-10-16T14:24:58;2.65;;;2.45;;
6898;SDS011;3488;42.616;23.350;2022-10-16T14:27:27;3.85;;;3.55;;
6898;SDS011;3488;42.616;23.350;2022-10-16T14:30:10;3.38;;;2.63;;
6898;SDS011;3488;42.616;23.350;2022-10-16T14:32:41;2.95;;;2.65;;
6898;SDS011;3488;42.616;23.350;2022-10-16T14:35:22;2.47;;;2.35;;
6898;SDS011;3488;42.616;23.350;2022-10-16T14:37:51;3.10;;;2.08;;
6898;SDS011;3488;42.616;23.350;2022-10-16T14:40:18;3.70;;;2.67;;
6898;SDS011;3488;42.616;23.350;2022-10-16T14:42:46;3.50;;;2.00;;
6898;SDS011;3488;42.616;23.350;2022-10-16T14:45:17;3.88;;;2.17;;
6898;SDS011;3488;42.616;23.350;2022-10-16T14:47:47;3.05;;;2.75;;
6898;SDS011;3488;42.616;23.350;2022-10-16T14:50:16;2.30;;;2.10;;
6898;SDS011;3488;42.616;23.350;2022-10-16T14:52:43;2.47;;;2.28;;
6898;SDS011;3488;42.616;23.350;2022-10-16T14:55:10;2.72;;;2.53;;
6898;SDS011;3488;42.616;23.350;2022-10-16T14:57:37;2.90;;;2.72;;
6898;SDS011;3488;42.616;23.350;2022-10-16T15:00:08;3.85;;;2.90;;
6898;SDS011;3488;42.616;23.350;2022-10-16T15:02:42;4.28;;;2.95;;
6898;SDS011;3488;42.616;23.350;2022-10-16T15:05:13;3.00;;;2.80;;
6898;SDS011;3488;42.616;23.350;2022-10-16T15:07:42;3.38;;;2.70;;
6898;SDS011;3488;42.616;23.350;2022-10-16T15:10:10;3.25;;;3.03;;
6898;SDS011;3488;42.616;23.350;2022-10-16T15:12:37;3.50;;;2.55;;
6898;SDS011;3488;42.616;23.350;2022-10-16T15:17:58;2.92;;;2.58;;
6898;SDS011;3488;42.616;23.350;2022-10-16T15:20:26;2.45;;;2.33;;
6898;SDS011;3488;42.616;23.350;2022-10-16T15:22:55;3.70;;;3.42;;
6898;SDS011;3488;42.616;23.350;2022-10-16T15:25:32;3.25;;;2.50;;
6898;SDS011;3488;42.616;23.350;2022-10-16T15:28:02;3.75;;;2.40;;
6898;SDS011;3488;42.616;23.350;2022-10-16T15:30:30;3.28;;;3.00;;
6898;SDS011;3488;42.616;23.350;2022-10-16T15:32:59;4.00;;;2.75;;
6898;SDS011;3488;42.616;23.350;2022-10-16T15:35:26;3.55;;;2.70;;